createdAt,value
2023-02-08T00:00:16.391Z,100042.38
2023-02-08T00:02:19.559Z,100038.97
2023-02-08T00:04:24.032Z,100033.81
2023-02-08T00:06:27.091Z,100032.09
2023-02-08T00:08:30.158Z,100034.66
2023-02-08T00:10:33.205Z,100022.66
2023-02-08T00:12:36.224Z,100026.09
2023-02-08T00:14:39.214Z,100020.94
2023-02-08T00:16:42.264Z,100015.78
2023-02-08T00:18:45.379Z,100015.78
2023-02-08T00:20:49.765Z,100006.34
2023-02-08T00:22:53.524Z,100001.22
2023-02-08T00:24:56.679Z,99999.53
2023-02-08T00:26:59.730Z,100008.06
2023-02-08T00:29:03.065Z,100002.09
2023-02-08T00:31:06.888Z,100010.63
2023-02-08T00:33:11.002Z,99992.66
2023-02-08T00:35:13.945Z,99999.53
2023-02-08T00:37:18.499Z,100002.09
2023-02-08T00:39:22.084Z,99990.09
2023-02-08T00:41:25.216Z,99988.34
2023-02-08T00:43:28.238Z,99983.22
2023-02-08T00:45:31.655Z,99990.88
2023-02-08T00:47:34.689Z,99986.63
2023-02-08T00:49:37.772Z,99992.59
2023-02-08T00:51:41.044Z,100005.44
2023-02-08T00:53:46.721Z,99995.22
2023-02-08T00:55:52.284Z,99998.63
2023-02-08T00:57:55.270Z,99999.50
2023-02-08T00:59:58.324Z,100004.63
2023-02-08T01:02:01.665Z,99996.94
2023-02-08T01:04:04.826Z,100003.78
2023-02-08T01:06:09.400Z,100005.50
2023-02-08T01:08:12.414Z,100004.66
2023-02-08T01:10:16.765Z,100006.38
2023-02-08T01:12:19.863Z,100010.66
2023-02-08T01:14:23.147Z,99999.53
2023-02-08T01:16:28.431Z,100011.50
2023-02-08T01:18:31.445Z,100007.25
2023-02-08T01:20:36.084Z,100006.38
2023-02-08T01:22:39.620Z,100008.09
2023-02-08T01:24:42.591Z,100008.09
2023-02-08T01:26:47.029Z,100005.53
2023-02-08T01:28:50.828Z,100001.22
2023-02-08T01:30:53.990Z,99997.81
2023-02-08T01:32:56.977Z,99992.66
2023-02-08T01:34:59.913Z,99990.09
2023-02-08T01:37:02.927Z,99997.78
2023-02-08T01:39:07.128Z,99988.38
2023-02-08T01:41:15.837Z,99989.25
2023-02-08T01:43:24.643Z,99984.09
2023-02-08T01:45:29.944Z,99981.53
2023-02-08T01:47:33.018Z,99985.75
2023-02-08T01:49:37.471Z,99978.91
2023-02-08T01:51:42.761Z,99983.19
2023-02-08T01:53:45.832Z,99984.91
2023-02-08T01:55:53.258Z,99977.19
2023-02-08T01:57:58.397Z,99979.75
2023-02-08T02:00:04.983Z,99975.47
2023-02-08T02:02:19.048Z,99970.34
2023-02-08T02:04:23.697Z,99964.31
2023-02-08T02:06:31.689Z,99959.16
2023-02-08T02:08:34.945Z,99957.50
2023-02-08T02:10:39.976Z,99956.63
2023-02-08T02:12:44.102Z,99950.66
2023-02-08T02:14:47.395Z,99950.63
2023-02-08T02:16:51.787Z,99947.22
2023-02-08T02:18:55.759Z,99952.34
2023-02-08T02:21:11.432Z,99946.34
2023-02-08T02:23:36.139Z,99939.50
2023-02-08T02:26:02.484Z,99944.59
2023-02-08T02:28:23.326Z,99937.75
2023-02-08T02:30:37.231Z,99935.19
2023-02-08T02:32:51.052Z,99933.53
2023-02-08T02:34:58.329Z,99936.06
2023-02-08T02:37:12.466Z,99933.50
2023-02-08T02:39:21.975Z,99934.41
2023-02-08T02:41:52.212Z,99931.81
2023-02-08T02:43:58.912Z,99938.63
2023-02-08T02:46:06.753Z,99942.09
2023-02-08T02:48:13.916Z,99934.41
2023-02-08T02:50:21.382Z,99934.44
2023-02-08T02:52:28.307Z,99942.97
2023-02-08T02:54:34.937Z,99937.00
2023-02-08T02:56:41.032Z,99931.88
2023-02-08T02:58:44.720Z,99933.56
2023-02-08T03:00:53.615Z,99936.16
2023-02-08T03:02:58.695Z,99943.00
2023-02-08T03:05:03.152Z,99942.19
2023-02-08T03:07:12.772Z,99948.16
2023-02-08T03:09:30.557Z,99946.44
2023-02-08T03:11:35.412Z,99944.75
2023-02-08T03:13:48.838Z,99947.31
2023-02-08T03:16:01.108Z,99943.88
2023-02-08T03:18:07.416Z,99948.16
2023-02-08T03:20:15.114Z,99951.53
2023-02-08T03:22:21.897Z,99946.41
2023-02-08T03:24:29.498Z,99943.81
2023-02-08T03:26:36.196Z,99945.50
2023-02-08T03:28:42.515Z,99948.06
2023-02-08T03:30:54.581Z,99937.81
2023-02-08T03:32:59.962Z,99932.69
2023-02-08T03:35:06.395Z,99937.78
2023-02-08T03:37:12.699Z,99941.19
2023-02-08T03:39:19.280Z,99939.53
2023-02-08T03:41:25.807Z,99938.66
2023-02-08T03:43:31.397Z,99932.66
2023-02-08T03:45:37.709Z,99934.38
2023-02-08T03:47:42.161Z,99936.94
2023-02-08T03:49:46.588Z,99934.38
2023-02-08T03:51:50.399Z,99934.34
2023-02-08T03:53:56.252Z,99941.19
2023-02-08T03:56:01.536Z,99941.19
2023-02-08T03:58:07.920Z,99936.06
2023-02-08T04:00:14.432Z,99950.59
2023-02-08T04:02:21.254Z,99948.88
2023-02-08T04:04:24.470Z,99944.63
2023-02-08T04:06:27.607Z,99937.78
2023-02-08T04:08:31.307Z,99941.19
2023-02-08T04:10:35.750Z,99940.34
2023-02-08T04:12:38.711Z,99941.19
2023-02-08T04:14:41.902Z,99934.38
2023-02-08T04:16:44.857Z,99940.31
2023-02-08T04:18:47.841Z,99935.19
2023-02-08T04:20:50.822Z,99931.78
2023-02-08T04:22:53.784Z,99943.75
2023-02-08T04:24:56.796Z,99931.78
2023-02-08T04:27:01.187Z,99934.34
2023-02-08T04:29:04.299Z,99934.38
2023-02-08T04:31:07.506Z,99929.25
2023-02-08T04:33:12.588Z,99930.09
2023-02-08T04:35:15.632Z,99924.13
2023-02-08T04:37:18.728Z,99923.28
2023-02-08T04:39:21.672Z,99928.41
2023-02-08T04:41:24.928Z,99932.66
2023-02-08T04:43:29.574Z,99937.78
2023-02-08T04:45:32.981Z,99934.34
2023-02-08T04:47:36.027Z,99928.34
2023-02-08T04:49:39.068Z,99924.06
2023-02-08T04:51:42.052Z,99928.31
2023-02-08T04:53:45.060Z,99924.00
2023-02-08T04:55:48.070Z,99919.72
2023-02-08T04:57:51.119Z,99925.72
2023-02-08T04:59:55.536Z,99919.72
2023-02-08T05:01:58.511Z,99918.88
2023-02-08T05:04:01.535Z,99909.47
2023-02-08T05:06:04.755Z,99911.19
2023-02-08T05:08:08.056Z,99909.44
2023-02-08T05:10:11.303Z,99908.59
2023-02-08T05:12:14.359Z,99906.03
2023-02-08T05:14:17.377Z,99906.88
2023-02-08T05:16:21.774Z,99912.88
2023-02-08T05:18:24.885Z,99912.88
2023-02-08T05:20:28.364Z,99912.00
2023-02-08T05:22:31.331Z,99912.00
2023-02-08T05:24:34.456Z,99907.72
2023-02-08T05:26:37.520Z,99912.84
2023-02-08T05:28:40.422Z,99915.41
2023-02-08T05:30:43.615Z,99909.44
2023-02-08T05:32:48.050Z,99910.25
2023-02-08T05:34:51.103Z,99911.97
2023-02-08T05:36:54.178Z,99911.97
2023-02-08T05:38:57.237Z,99915.38
2023-02-08T05:41:00.258Z,99907.69
2023-02-08T05:43:03.303Z,99921.31
2023-02-08T05:45:07.330Z,99923.88
2023-02-08T05:47:10.408Z,99911.97
2023-02-08T05:49:15.006Z,99912.00
2023-02-08T05:51:17.982Z,99911.97
2023-02-08T05:53:21.026Z,99919.66
2023-02-08T05:55:24.030Z,99916.22
2023-02-08T05:57:27.108Z,99912.00
2023-02-08T05:59:30.283Z,99914.56
2023-02-08T06:01:33.464Z,99911.97
2023-02-08T06:03:36.704Z,99918.78
2023-02-08T06:05:41.508Z,99921.34
2023-02-08T06:07:44.552Z,99923.91
2023-02-08T06:09:48.638Z,99919.66
2023-02-08T06:11:51.720Z,99919.66
2023-02-08T06:13:54.832Z,99929.03
2023-02-08T06:15:57.900Z,99919.69
2023-02-08T06:18:00.900Z,99916.22
2023-02-08T06:20:03.880Z,99926.44
2023-02-08T06:22:08.305Z,99918.75
2023-02-08T06:24:11.489Z,99918.75
2023-02-08T06:26:14.589Z,99922.16
2023-02-08T06:28:17.679Z,99925.56
2023-02-08T06:30:21.308Z,99929.81
2023-02-08T06:32:24.379Z,99929.81
2023-02-08T06:34:27.321Z,99927.22
2023-02-08T06:36:30.556Z,99925.47
2023-02-08T06:38:35.049Z,99924.63
2023-02-08T06:40:38.245Z,99920.31
2023-02-08T06:42:42.883Z,99925.41
2023-02-08T06:44:54.725Z,99918.56
2023-02-08T06:46:58.393Z,99931.38
2023-02-08T06:49:01.424Z,99939.91
2023-02-08T06:51:04.896Z,99923.69
2023-02-08T06:53:07.974Z,99926.22
2023-02-08T06:55:12.515Z,99930.47
2023-02-08T06:57:15.730Z,99934.75
2023-02-08T06:59:18.883Z,99932.16
2023-02-08T07:01:21.930Z,99940.72
2023-02-08T07:03:25.011Z,99945.97
2023-02-08T07:05:28.071Z,99946.84
2023-02-08T07:07:31.168Z,99944.38
2023-02-08T07:09:34.496Z,99950.44
2023-02-08T07:11:38.918Z,99959.97
2023-02-08T07:13:42.012Z,99968.56
2023-02-08T07:15:45.105Z,99959.22
2023-02-08T07:17:48.817Z,99963.56
2023-02-08T07:19:52.054Z,99965.28
2023-02-08T07:21:55.294Z,99966.19
2023-02-08T07:23:58.323Z,99971.31
2023-02-08T07:26:02.821Z,99970.50
2023-02-08T07:28:07.769Z,99978.22
2023-02-08T07:30:11.831Z,99984.19
2023-02-08T07:32:14.945Z,99981.63
2023-02-08T07:34:21.814Z,99984.19
2023-02-08T07:36:24.869Z,99983.31
2023-02-08T07:38:28.311Z,99982.44
2023-02-08T07:40:32.149Z,99982.41
2023-02-08T07:42:35.265Z,99982.38
2023-02-08T07:44:53.549Z,99981.47
2023-02-08T07:46:56.487Z,99980.63
2023-02-08T07:48:59.789Z,99978.03
2023-02-08T07:51:03.301Z,99974.59
2023-02-08T07:53:06.268Z,99979.75
2023-02-08T07:55:09.937Z,99976.28
2023-02-08T07:57:12.999Z,99974.56
2023-02-08T07:59:16.354Z,99976.25
2023-02-08T08:01:23.034Z,99984.78
2023-02-08T08:03:26.330Z,99969.31
2023-02-08T08:05:29.251Z,99972.69
2023-02-08T08:07:32.272Z,99976.84
2023-02-08T08:09:35.251Z,99978.53
2023-02-08T08:11:38.270Z,99974.22
2023-02-08T08:13:41.278Z,99986.19
2023-02-08T08:15:44.336Z,99978.41
2023-02-08T08:17:48.926Z,99984.34
2023-02-08T08:19:51.933Z,99982.56
2023-02-08T08:21:54.909Z,99971.38
2023-02-08T08:23:57.973Z,99970.47
2023-02-08T08:26:01.157Z,99975.56
2023-02-08T08:28:04.260Z,99976.38
2023-02-08T08:30:08.273Z,99990.81
2023-02-08T08:32:11.949Z,99989.84
2023-02-08T08:34:16.354Z,99982.88
2023-02-08T08:36:19.402Z,99986.22
2023-02-08T08:38:22.458Z,99997.25
2023-02-08T08:40:25.529Z,99990.44
2023-02-08T08:42:28.576Z,99985.41
2023-02-08T08:44:31.926Z,99980.34
2023-02-08T08:46:35.151Z,99992.16
2023-02-08T08:48:38.920Z,99986.16
2023-02-08T08:50:43.941Z,99985.22
2023-02-08T08:52:46.956Z,99990.25
2023-02-08T08:54:49.909Z,99986.69
2023-02-08T08:56:52.909Z,99984.94
2023-02-08T08:58:56.086Z,99991.53
2023-02-08T09:01:00.307Z,99992.31
2023-02-08T09:03:03.406Z,99993.84
2023-02-08T09:05:08.095Z,99988.50
2023-02-08T09:07:12.518Z,99987.03
2023-02-08T09:09:15.617Z,99974.00
2023-02-08T09:11:18.580Z,99975.78
2023-02-08T09:13:22.136Z,99975.06
2023-02-08T09:15:25.158Z,99973.28
2023-02-08T09:17:28.267Z,99980.81
2023-02-08T09:19:31.380Z,99974.69
2023-02-08T09:21:35.269Z,99971.97
2023-02-08T09:23:39.967Z,99972.69
2023-02-08T09:25:43.265Z,99978.63
2023-02-08T09:27:46.412Z,99981.13
2023-02-08T09:29:49.452Z,99976.75
2023-02-08T09:31:52.561Z,99979.41
2023-02-08T09:33:57.887Z,99977.50
2023-02-08T09:36:01.136Z,99983.53
2023-02-08T09:38:05.384Z,99979.94
2023-02-08T09:40:17.637Z,99971.34
2023-02-08T09:42:30.518Z,99972.16
2023-02-08T09:44:37.979Z,99975.81
2023-02-08T09:46:42.551Z,99968.94
2023-02-08T09:48:46.460Z,99971.22
2023-02-08T09:50:51.940Z,99974.75
2023-02-08T09:53:00.736Z,99970.50
2023-02-08T09:55:10.290Z,99966.00
2023-02-08T09:57:16.914Z,99972.75
2023-02-08T09:59:24.128Z,99967.56
2023-02-08T10:01:29.180Z,99976.81
2023-02-08T10:03:37.897Z,99967.38
2023-02-08T10:05:41.030Z,99963.84
2023-02-08T10:07:44.373Z,99968.50
2023-02-08T10:09:47.522Z,99964.34
2023-02-08T10:11:58.194Z,99956.53
2023-02-08T10:14:14.480Z,99956.06
2023-02-08T10:16:27.192Z,99956.13
2023-02-08T10:18:39.726Z,99966.81
2023-02-08T10:20:51.784Z,99955.31
2023-02-08T10:23:04.042Z,99954.28
2023-02-08T10:25:41.097Z,99956.41
2023-02-08T10:27:50.764Z,99944.50
2023-02-08T10:30:14.703Z,99946.94
2023-02-08T10:32:41.325Z,99939.28
2023-02-08T10:34:47.775Z,99937.41
2023-02-08T10:36:51.876Z,99938.97
2023-02-08T10:38:57.047Z,99933.94
2023-02-08T10:41:01.469Z,99933.19
2023-02-08T10:43:13.985Z,99926.13
2023-02-08T10:45:25.149Z,99933.66
2023-02-08T10:47:43.791Z,99930.00
2023-02-08T10:49:52.135Z,99916.34
2023-02-08T10:51:55.229Z,99924.88
2023-02-08T10:53:58.948Z,99925.78
2023-02-08T10:56:02.303Z,99918.03
2023-02-08T10:58:07.232Z,99914.22
2023-02-08T11:00:16.579Z,99914.06
2023-02-08T11:02:26.485Z,99898.47
2023-02-08T11:04:29.771Z,99908.69
2023-02-08T11:06:33.284Z,99899.28
2023-02-08T11:08:55.521Z,99910.28
2023-02-08T11:11:00.315Z,99910.13
2023-02-08T11:13:08.314Z,99904.75
2023-02-08T11:15:23.658Z,99903.66
2023-02-08T11:17:30.938Z,99910.41
2023-02-08T11:19:36.041Z,99892.22
2023-02-08T11:21:41.266Z,99889.72
2023-02-08T11:23:44.499Z,99884.69
2023-02-08T11:25:48.028Z,99871.28
2023-02-08T11:27:51.106Z,99874.59
2023-02-08T11:30:18.173Z,99876.16
2023-02-08T11:32:21.888Z,99864.66
2023-02-08T11:34:29.071Z,99864.19
2023-02-08T11:36:33.089Z,99861.66
2023-02-08T11:38:37.697Z,99861.56
2023-02-08T11:40:44.947Z,99869.44
2023-02-08T11:42:48.139Z,99855.75
2023-02-08T11:44:52.999Z,99844.47
2023-02-08T11:46:57.420Z,99853.84
2023-02-08T11:49:03.564Z,99850.31
2023-02-08T11:51:08.698Z,99851.97
2023-02-08T11:53:23.257Z,99854.41
2023-02-08T11:55:29.367Z,99847.44
2023-02-08T11:57:32.978Z,99851.81
2023-02-08T11:59:36.158Z,99844.94
2023-02-08T12:01:40.608Z,99838.28
2023-02-08T12:03:43.872Z,99841.09
2023-02-08T12:05:53.963Z,99831.03
2023-02-08T12:08:06.811Z,99830.91
2023-02-08T12:10:25.767Z,99836.75
2023-02-08T12:12:35.865Z,99834.94
2023-02-08T12:14:50.784Z,99833.66
2023-02-08T12:17:24.563Z,99823.19
2023-02-08T12:19:54.145Z,99821.47
2023-02-08T12:22:00.467Z,99819.19
2023-02-08T12:24:09.027Z,99821.09
2023-02-08T12:26:18.088Z,99821.09
2023-02-08T12:28:27.796Z,99826.41
2023-02-08T12:30:35.354Z,99813.53
2023-02-08T12:32:51.574Z,99815.13
2023-02-08T12:35:04.997Z,99810.66
2023-02-08T12:37:41.865Z,99792.50
2023-02-08T12:40:11.703Z,99801.97
2023-02-08T12:42:26.039Z,99778.69
2023-02-08T12:44:34.805Z,99783.81
2023-02-08T12:46:51.600Z,99770.06
2023-02-08T12:49:26.156Z,99775.19
2023-02-08T12:51:37.018Z,99775.06
2023-02-08T12:53:44.851Z,99766.25
2023-02-08T12:55:49.955Z,99760.19
2023-02-08T12:57:54.853Z,99752.50
2023-02-08T13:00:00.655Z,99744.81
2023-02-08T13:02:07.903Z,99749.19
2023-02-08T13:04:14.137Z,99750.94
2023-02-08T13:06:19.672Z,99744.00
2023-02-08T13:08:29.198Z,99752.44
2023-02-08T13:10:35.850Z,99732.66
2023-02-08T13:12:43.112Z,99740.47
2023-02-08T13:14:49.660Z,99739.69
2023-02-08T13:16:56.224Z,99735.31
2023-02-08T13:19:23.157Z,99744.03
2023-02-08T13:21:30.626Z,99745.06
2023-02-08T13:23:50.511Z,99743.31
2023-02-08T13:25:58.151Z,99748.50
2023-02-08T13:28:03.434Z,99742.53
2023-02-08T13:30:07.820Z,99729.69
2023-02-08T13:32:17.495Z,99746.09
2023-02-08T13:34:26.451Z,99733.25
2023-02-08T13:36:31.785Z,99725.47
2023-02-08T13:38:36.331Z,99727.97
2023-02-08T13:40:39.744Z,99724.50
2023-02-08T13:42:44.553Z,99728.88
2023-02-08T13:44:53.482Z,99730.00
2023-02-08T13:46:56.727Z,99720.63
2023-02-08T13:49:00.891Z,99726.72
2023-02-08T13:51:04.795Z,99724.22
2023-02-08T13:53:08.192Z,99716.59
2023-02-08T13:55:53.273Z,99730.59
2023-02-08T13:57:58.001Z,99717.75
2023-02-08T14:00:23.431Z,99719.41
2023-02-08T14:02:28.624Z,99724.53
2023-02-08T14:04:35.113Z,99716.06
2023-02-08T14:06:38.941Z,99726.44
2023-02-08T14:08:47.516Z,99730.59
2023-02-08T14:11:02.438Z,99708.91
2023-02-08T14:13:09.198Z,99711.38
2023-02-08T14:15:31.531Z,99718.19
2023-02-08T14:17:35.425Z,99738.78
2023-02-08T14:19:40.065Z,99719.84
2023-02-08T14:21:46.049Z,99723.22
2023-02-08T14:24:00.616Z,99731.81
2023-02-08T14:26:09.800Z,99731.00
2023-02-08T14:28:27.621Z,99732.94
2023-02-08T14:30:33.711Z,99732.06
2023-02-08T14:32:38.931Z,99723.38
2023-02-08T14:34:42.026Z,99716.44
2023-02-08T14:36:45.174Z,99725.91
2023-02-08T14:38:53.790Z,99719.88
2023-02-08T14:40:58.465Z,99709.50
2023-02-08T14:43:02.915Z,99706.88
2023-02-08T14:45:06.810Z,99701.78
2023-02-08T14:47:14.713Z,99706.00
2023-02-08T14:49:19.232Z,99700.00
2023-02-08T14:51:25.518Z,99703.56
2023-02-08T14:53:44.837Z,99704.44
2023-02-08T14:55:51.012Z,99710.56
2023-02-08T14:57:55.205Z,99696.72
2023-02-08T15:00:00.865Z,99705.22
2023-02-08T15:02:05.646Z,99708.59
2023-02-08T15:04:10.576Z,99704.25
2023-02-08T15:07:00.243Z,99705.19
2023-02-08T15:09:05.848Z,99706.00
2023-02-08T15:11:21.368Z,99710.31
2023-02-08T15:13:25.326Z,99704.19
2023-02-08T15:15:31.246Z,99710.28
2023-02-08T15:17:36.278Z,99708.81
2023-02-08T15:19:40.727Z,99714.88
2023-02-08T15:21:43.827Z,99715.81
2023-02-08T15:23:59.584Z,99714.94
2023-02-08T15:26:04.672Z,99716.72
2023-02-08T15:28:19.964Z,99706.41
2023-02-08T15:30:28.216Z,99708.34
2023-02-08T15:32:31.618Z,99713.47
2023-02-08T15:34:34.630Z,99705.66
2023-02-08T15:36:40.827Z,99697.81
2023-02-08T15:38:44.886Z,99705.66
2023-02-08T15:41:01.771Z,99709.09
2023-02-08T15:43:12.208Z,99704.88
2023-02-08T15:45:24.501Z,99711.00
2023-02-08T15:47:30.004Z,99702.47
2023-02-08T15:49:35.084Z,99699.97
2023-02-08T15:51:39.697Z,99688.25
2023-02-08T15:53:45.006Z,99683.16
2023-02-08T15:55:50.596Z,99691.91
2023-02-08T15:57:57.990Z,99689.47
2023-02-08T16:00:01.299Z,99692.13
2023-02-08T16:02:19.623Z,99697.34
2023-02-08T16:04:22.835Z,99693.97
2023-02-08T16:06:27.335Z,99688.06
2023-02-08T16:08:33.404Z,99694.13
2023-02-08T16:10:40.761Z,99685.56
2023-02-08T16:12:44.765Z,99686.53
2023-02-08T16:14:52.716Z,99678.91
2023-02-08T16:16:57.806Z,99688.38
2023-02-08T16:19:02.776Z,99678.09
2023-02-08T16:21:08.194Z,99685.03
2023-02-08T16:23:24.571Z,99690.19
2023-02-08T16:25:38.398Z,99686.75
2023-02-08T16:27:48.682Z,99691.09
2023-02-08T16:29:51.768Z,99690.19
2023-02-08T16:32:00.980Z,99685.94
2023-02-08T16:34:06.428Z,99687.59
2023-02-08T16:36:22.973Z,99690.16
2023-02-08T16:38:26.117Z,99692.84
2023-02-08T16:40:48.907Z,99697.19
2023-02-08T16:42:52.032Z,99695.59
2023-02-08T16:45:24.244Z,99698.38
2023-02-08T16:47:30.102Z,99701.00
2023-02-08T16:49:33.066Z,99699.31
2023-02-08T16:51:39.347Z,99701.13
2023-02-08T16:53:42.973Z,99706.28
2023-02-08T16:55:47.329Z,99702.81
2023-02-08T16:57:51.482Z,99701.97
2023-02-08T16:59:56.641Z,99706.22
2023-02-08T17:01:59.903Z,99701.91
2023-02-08T17:04:02.986Z,99704.47
2023-02-08T17:06:06.532Z,99712.22
2023-02-08T17:08:13.493Z,99713.97
2023-02-08T17:10:23.544Z,99708.78
2023-02-08T17:12:28.026Z,99713.06
2023-02-08T17:14:31.104Z,99715.66
2023-02-08T17:16:35.970Z,99722.53
2023-02-08T17:18:39.499Z,99719.13
2023-02-08T17:20:42.752Z,99723.44
2023-02-08T17:22:46.204Z,99714.19
2023-02-08T17:24:49.340Z,99705.66
2023-02-08T17:26:52.476Z,99708.28
2023-02-08T17:28:57.731Z,99720.38
2023-02-08T17:31:01.726Z,99710.97
2023-02-08T17:33:06.647Z,99706.75
2023-02-08T17:35:10.676Z,99706.84
2023-02-08T17:37:13.748Z,99716.28
2023-02-08T17:39:17.763Z,99714.59
2023-02-08T17:41:21.724Z,99718.06
2023-02-08T17:43:25.463Z,99721.56
2023-02-08T17:45:30.514Z,99723.28
2023-02-08T17:47:33.596Z,99715.63
2023-02-08T17:49:36.682Z,99716.59
2023-02-08T17:51:39.735Z,99723.50
2023-02-08T17:53:44.323Z,99726.06
2023-02-08T17:55:47.984Z,99724.41
2023-02-08T17:57:51.086Z,99721.91
2023-02-08T17:59:54.232Z,99717.72
2023-02-08T18:01:58.773Z,99715.34
2023-02-08T18:04:02.004Z,99718.03
2023-02-08T18:06:06.102Z,99713.06
2023-02-08T18:08:09.342Z,99712.25
2023-02-08T18:10:13.664Z,99711.44
2023-02-08T18:12:16.858Z,99714.94
2023-02-08T18:14:20.572Z,99711.50
2023-02-08T18:16:25.695Z,99720.09
2023-02-08T18:18:30.168Z,99705.56
2023-02-08T18:20:33.187Z,99714.16
2023-02-08T18:22:37.010Z,99705.63
2023-02-08T18:24:40.064Z,99703.06
2023-02-08T18:26:43.205Z,99708.19
2023-02-08T18:28:46.770Z,99709.13
2023-02-08T18:30:49.876Z,99711.72
2023-02-08T18:32:52.913Z,99716.00
2023-02-08T18:34:58.538Z,99710.06
2023-02-08T18:37:01.879Z,99721.16
2023-02-08T18:39:05.422Z,99711.81
2023-02-08T18:41:09.337Z,99718.63
2023-02-08T18:43:13.056Z,99711.81
2023-02-08T18:45:16.240Z,99716.94
2023-02-08T18:47:19.344Z,99705.78
2023-02-08T18:49:22.500Z,99710.09
2023-02-08T18:51:28.421Z,99706.69
2023-02-08T18:53:33.036Z,99700.69
2023-02-08T18:55:36.131Z,99703.25
2023-02-08T18:57:40.165Z,99712.69
2023-02-08T18:59:43.629Z,99715.25
2023-02-08T19:01:47.076Z,99703.25
2023-02-08T19:03:51.797Z,99702.41
2023-02-08T19:05:54.880Z,99702.47
2023-02-08T19:07:59.320Z,99702.47
2023-02-08T19:10:02.547Z,99702.44
2023-02-08T19:12:05.869Z,99695.59
2023-02-08T19:14:11.610Z,99703.25
2023-02-08T19:16:15.491Z,99699.00
2023-02-08T19:18:18.686Z,99699.88
2023-02-08T19:20:22.184Z,99698.13
2023-02-08T19:22:25.564Z,99694.72
2023-02-08T19:24:30.053Z,99689.59
2023-02-08T19:26:36.587Z,99688.75
2023-02-08T19:28:40.391Z,99687.88
2023-02-08T19:30:43.471Z,99692.16
2023-02-08T19:32:46.686Z,99690.41
2023-02-08T19:34:49.809Z,99696.41
2023-02-08T19:36:54.707Z,99698.97
2023-02-08T19:38:58.442Z,99700.63
2023-02-08T19:41:02.984Z,99693.81
2023-02-08T19:43:06.090Z,99688.72
2023-02-08T19:45:10.391Z,99698.09
2023-02-08T19:47:13.567Z,99694.69
2023-02-08T19:49:16.621Z,99685.28
2023-02-08T19:51:20.146Z,99691.28
2023-02-08T19:53:23.410Z,99684.44
2023-02-08T19:55:26.590Z,99680.16
2023-02-08T19:57:31.235Z,99680.16
2023-02-08T19:59:35.436Z,99681.09
2023-02-08T20:01:38.667Z,99682.78
2023-02-08T20:03:41.862Z,99681.94
2023-02-08T20:05:45.448Z,99676.84
2023-02-08T20:07:48.608Z,99676.88
2023-02-08T20:09:51.706Z,99674.34
2023-02-08T20:11:57.342Z,99664.09
2023-02-08T20:14:02.582Z,99670.97
2023-02-08T20:16:06.346Z,99669.25
2023-02-08T20:18:10.922Z,99672.72
2023-02-08T20:20:14.103Z,99675.25
2023-02-08T20:22:17.295Z,99668.44
2023-02-08T20:24:20.471Z,99678.75
2023-02-08T20:26:25.005Z,99663.34
2023-02-08T20:28:28.784Z,99663.34
2023-02-08T20:30:33.312Z,99665.09
2023-02-08T20:32:36.376Z,99654.88
2023-02-08T20:34:47.425Z,99663.44
2023-02-08T20:37:06.275Z,99666.88
2023-02-08T20:39:11.847Z,99654.06
2023-02-08T20:41:15.837Z,99665.16
2023-02-08T20:43:18.978Z,99656.66
2023-02-08T20:45:22.195Z,99662.63
2023-02-08T20:47:27.459Z,99658.34
2023-02-08T20:49:32.364Z,99659.25
2023-02-08T20:51:35.893Z,99658.41
2023-02-08T20:53:40.517Z,99649.84
2023-02-08T20:55:44.034Z,99663.56
2023-02-08T20:57:47.285Z,99661.84
2023-02-08T20:59:51.676Z,99656.69
2023-02-08T21:01:54.825Z,99660.97
2023-02-08T21:03:59.792Z,99662.66
2023-02-08T21:06:02.938Z,99659.22
2023-02-08T21:08:06.413Z,99665.19
2023-02-08T21:10:09.853Z,99666.91
2023-02-08T21:12:12.964Z,99668.59
2023-02-08T21:14:19.120Z,99662.63
2023-02-08T21:16:22.708Z,99662.59
2023-02-08T21:18:25.941Z,99660.03
2023-02-08T21:20:30.479Z,99656.59
2023-02-08T21:22:33.626Z,99657.44
2023-02-08T21:24:36.740Z,99661.75
2023-02-08T21:26:39.944Z,99660.91
2023-02-08T21:28:43.807Z,99658.34
2023-02-08T21:30:47.443Z,99657.47
2023-02-08T21:32:50.969Z,99648.94
2023-02-08T21:34:54.332Z,99653.19
2023-02-08T21:36:59.607Z,99646.38
2023-02-08T21:39:02.675Z,99648.94
2023-02-08T21:41:08.111Z,99654.91
2023-02-08T21:43:11.314Z,99648.94
2023-02-08T21:45:14.591Z,99650.63
2023-02-08T21:47:17.937Z,99646.38
2023-02-08T21:49:38.351Z,99653.19
2023-02-08T21:51:59.198Z,99655.75
2023-02-08T21:54:21.092Z,99649.75
2023-02-08T21:56:24.241Z,99650.59
2023-02-08T21:58:27.438Z,99649.75
2023-02-08T22:00:30.807Z,99650.56
2023-02-08T22:02:34.034Z,99654.84
2023-02-08T22:04:38.181Z,99654.00
2023-02-08T22:06:49.927Z,99650.59
2023-02-08T22:08:53.150Z,99643.78
2023-02-08T22:11:04.562Z,99645.50
2023-02-08T22:13:08.190Z,99647.22
2023-02-08T22:15:12.271Z,99646.38
2023-02-08T22:17:16.110Z,99636.97
2023-02-08T22:19:19.333Z,99632.72
2023-02-08T22:21:22.534Z,99625.91
2023-02-08T22:23:25.675Z,99631.03
2023-02-08T22:25:29.105Z,99636.19
2023-02-08T22:27:33.646Z,99633.59
2023-02-08T22:29:36.998Z,99630.22
2023-02-08T22:31:40.245Z,99623.38
2023-02-08T22:33:43.911Z,99632.78
2023-02-08T22:35:46.973Z,99628.53
2023-02-08T22:37:50.312Z,99629.38
2023-02-08T22:39:53.601Z,99632.81
2023-02-08T22:41:56.808Z,99629.38
2023-02-08T22:44:01.354Z,99633.66
2023-02-08T22:46:04.719Z,99627.69
2023-02-08T22:48:07.905Z,99621.69
2023-02-08T22:50:11.351Z,99629.38
2023-02-08T22:52:14.700Z,99619.13
2023-02-08T22:54:17.754Z,99625.97
2023-02-08T22:56:20.930Z,99622.56
2023-02-08T22:58:24.655Z,99616.56
2023-02-08T23:00:29.120Z,99606.31
2023-02-08T23:02:32.319Z,99616.56
2023-02-08T23:04:35.609Z,99613.19
2023-02-08T23:06:41.397Z,99613.22
2023-02-08T23:08:44.643Z,99601.28
2023-02-08T23:10:47.728Z,99602.13
2023-02-08T23:12:50.855Z,99604.69
2023-02-08T23:14:53.991Z,99600.41
2023-02-08T23:16:58.451Z,99602.16
2023-02-08T23:19:01.572Z,99602.16
2023-02-08T23:21:07.337Z,99596.19
2023-02-08T23:23:10.522Z,99590.22
2023-02-08T23:25:13.621Z,99592.81
2023-02-08T23:27:16.780Z,99591.09
2023-02-08T23:29:19.866Z,99588.56
2023-02-08T23:31:23.324Z,99591.13
2023-02-08T23:33:27.961Z,99583.44
2023-02-08T23:35:31.117Z,99580.03
2023-02-08T23:37:34.200Z,99580.88
2023-02-08T23:39:37.269Z,99586.00
2023-02-08T23:41:40.360Z,99578.31
2023-02-08T23:43:43.812Z,99575.75
2023-02-08T23:45:46.902Z,99577.47
2023-02-08T23:47:49.974Z,99570.63
2023-02-08T23:49:54.367Z,99574.91
2023-02-08T23:51:57.495Z,99580.88
2023-02-08T23:54:00.514Z,99581.72
2023-02-08T23:56:06.636Z,99583.44
2023-02-08T23:58:09.729Z,99590.28
